Etusivu
METAR-TAF:

METAR-TAF

Lentoasemat :

Florianópolis, Santa Catarina, Brasilia

Leveyspiiri: 27-40S, Pituuspiiri: 048-33W, korkeus merenpinnasta: 5 m

Tämänhetkinen sää

Tämä raportti tehtiin 36 minuuttia sitten, kello 01.00 UTC
tyyntä
Lämpötila 26°C
Kosteus 84%
Ilmanpaine 1011 hPa
Näkyvyys 10 km tai enemmän
Muutamia pilviä 4000 ft:n korkeudessa
Hajanaisia pilviä 7000 ft:n korkeudessa

METAR: SBFL 190100Z 00000KT 9999 FEW040 SCT070 26/23 Q1011

Aika: 23:36 (01:36 UTC)

Sääennuste

Tämä raportti tehtiin 4 tuntia ja 36 minuuttia sitten, kello 21.00 UTC
Ennuste voimassa 19. päivästä klo 00 UTC - 19. päivään klo 24 UTC
Tuuli 10 kn etelästä
Näkyvyys 10 km tai enemmän
Hajanaisia pilviä 3000 ft:n korkeudessa
Tulossa
19. päivästä klo 18 UTC - 19. päivään klo 22 UTC
Muutamia pilviä 3500 ft:n korkeudessa, Kasvava cumulus-pilvi.
vesikuuroja

TAF: SBFL 182100Z 1900/1924 17010KT 9999 SCT030 TX27/1900Z TN24/1912Z BECMG 1918/1922 SHRA FEW035TCU RMK PDN

Säähavainnot ja -ennusteet yli 4000 lentoasemalta (METAR- ja TAF-raportit).

Käytössä olevat sääasemat on merkitty karttaan keltaisilla ja punaisilla pisteillä.

Aseta hiiri pisteen päälle nähdäksesi sääaseman nimen.

Klikkaa sitten nähdäksesi säähavainnot ja -ennusteet.

Kartan vaihtaminen: klikkaa mustalla rastilla varustettuja vihreitä pisteitä, niin voit zoomata sisään; viivalla varustettua vihreää pistettä, niin voit zoomata ulos tai vihreitä nuolia, niin pääset viereisille kartoille.


METAR-TAF: